Latest Weather Observations for Cape Grim

IDT60801

Issued at 8:01 am EST Thursday 30 July 2015 (issued every 30 minutes, with the page automatically refreshed every 10 minutes)

About weather observations | Map of weather stations | Latest weather observations for TAS | Other Formats
Station Details ID: 091331 Name: CAPE GRIM Lat: -40.68 Lon: 144.69 Height: 86.0 m
Data from the previous 72 hours. | See also: Recent months at Cape Grim
Date/Time
EST
Temp
°C
App
Temp
°C
Dew
Point
Rel
Hum
%
Delta-T
°C
Wind Press
QNH
hPa
Press
MSL
hPa
Rain
since 9 am
mm
Dir
 
Spd
km/h
Gust
km/h
Spd
kts
Gust
kts
30/08:00am 10.5 0.8 5.7 72 2.2 NNW 46 59 25 32 1015.1 1015.2 2.4
30/07:36am 10.5 0.7 5.3 70 2.4 NNW 46 67 25 36 1015.1 1015.2 2.4
30/07:30am 10.6 0.1 5.8 72 2.2 NNW 50 65 27 35 1015.1 1015.2 2.4
30/07:00am 10.5 -0.4 5.3 70 2.4 NNW 52 65 28 35 1015.6 1015.7 2.4
30/06:30am 10.4 -0.1 5.6 72 2.2 NNW 50 61 27 33 1015.9 1016.0 2.4
30/06:00am 10.4 -0.5 5.6 72 2.2 NNW 52 63 28 34 1016.2 1016.4 2.4
30/05:30am 10.3 0.2 5.7 73 2.1 NNW 48 63 26 34 1017.0 1017.1 2.4
30/05:00am 10.5 0.1 5.9 73 2.1 NNW 50 59 27 32 1017.3 1017.5 2.4
30/04:30am 10.4 1.1 6.0 74 2.0 NNW 44 56 24 30 1018.0 1018.1 2.4
30/04:00am 10.4 0.7 5.8 73 2.1 NNW 46 57 25 31 1018.4 1018.5 2.4
30/03:30am 10.5 0.4 5.9 73 2.1 NNW 48 57 26 31 1018.9 1019.0 2.4
30/03:00am 10.3 0.6 5.7 73 2.1 NNW 46 59 25 32 1019.4 1019.5 2.4
30/02:30am 10.3 0.9 5.3 71 2.3 NNW 44 56 24 30 1019.7 1019.8 2.4
30/02:00am 10.5 0.0 5.7 72 2.2 NNW 50 61 27 33 1020.1 1020.2 2.4
30/01:30am 10.6 0.9 5.6 71 2.3 NNW 46 59 25 32 1020.3 1020.4 2.4
30/01:00am 10.7 1.0 5.7 71 2.3 NNW 46 57 25 31 1020.6 1020.7 2.4
30/12:30am 10.9 1.2 5.9 71 2.3 NNW 46 57 25 31 1021.2 1021.3 2.4
30/12:00am 10.9 0.5 6.1 72 2.2 NNW 50 59 27 32 1021.9 1022.0 2.4
 
Date/Time
EST
Temp
°C
App
Temp
°C
Dew
Point
Rel
Hum
%
Delta-T
°C
Wind Press
QNH
hPa
Press
MSL
hPa
Rain
since 9 am
mm
Dir
 
Spd
km/h
Gust
km/h
Spd
kts
Gust
kts
29/11:30pm 10.8 1.1 5.8 71 2.3 NNW 46 56 25 30 1022.3 1022.4 2.4
29/11:00pm 11.0 1.4 6.4 73 2.2 NNW 46 57 25 31 1022.5 1022.6 2.4
29/10:30pm 11.0 1.0 6.0 71 2.3 NNW 48 57 26 31 1023.0 1023.1 2.4
29/10:00pm 11.0 1.3 6.0 71 2.3 NNW 46 56 25 30 1023.2 1023.3 2.4
29/09:30pm 11.0 1.3 5.7 70 2.5 NNW 46 54 25 29 1023.5 1023.6 2.4
29/09:00pm 11.0 1.3 5.7 70 2.4 NNW 46 57 25 31 1023.6 1023.7 2.4
29/08:30pm 11.1 2.7 5.8 70 2.5 NNW 39 50 21 27 1023.9 1024.0 2.4
29/08:00pm 11.1 2.7 5.8 70 2.5 NW 39 54 21 29 1024.1 1024.2 2.4
29/07:30pm 11.1 3.1 5.8 70 2.5 NW 37 54 20 29 1024.2 1024.3 2.4
29/07:00pm 11.0 3.1 6.4 73 2.2 NW 37 52 20 28 1024.2 1024.3 2.4
29/06:30pm 11.2 3.8 6.7 74 2.1 NW 35 50 19 27 1024.0 1024.1 2.4
29/06:00pm 11.3 3.2 6.8 74 2.1 NW 39 52 21 28 1024.1 1024.2 2.4
29/05:37pm 11.1 3.4 7.0 76 2.0 NW 37 56 20 30 1024.1 1024.2 2.4
29/05:30pm 11.2 3.5 7.3 77 1.9 NW 37 48 20 26 1024.1 1024.2 2.4
29/05:00pm 11.2 4.4 7.1 76 2.0 NW 32 41 17 22 1024.3 1024.4 2.4
29/04:30pm 11.3 3.2 7.0 75 2.1 NW 39 50 21 27 1024.6 1024.7 2.4
29/04:00pm 11.5 3.3 6.4 71 2.4 WNW 39 56 21 30 1024.7 1024.8 2.4
29/03:30pm 11.4 2.5 6.7 73 2.2 WNW 43 54 23 29 1025.0 1025.1 2.4
29/03:00pm 11.2 4.1 7.9 80 1.6 WNW 35 48 19 26 1025.4 1025.5 2.4
29/02:30pm 10.7 4.0 8.3 85 1.2 NW 33 48 18 26 1025.6 1025.7 2.4
29/02:15pm 9.9 2.7 7.8 87 1.0 WNW 35 50 19 27 1025.9 1026.0 2.2
29/02:00pm 10.7 2.9 8.1 84 1.3 NW 39 56 21 30 1025.9 1026.0 1.8
29/01:57pm 11.1 4.1 8.3 83 1.4 NW 35 56 19 30 1026.0 1026.1 1.8
29/01:30pm 11.6 5.1 8.8 83 1.4 WNW 33 44 18 24 1026.4 1026.5 1.8
29/01:00pm 11.5 5.3 9.4 87 1.1 WNW 32 44 17 24 1027.0 1027.2 1.8
29/12:53pm 11.2 5.4 9.5 89 0.9 NW 30 39 16 21 1027.1 1027.3 1.8
29/12:42pm 11.0 5.5 9.3 89 0.9 NW 28 39 15 21 1027.3 1027.5 1.8
29/12:30pm 11.1 5.7 9.5 90 0.8 NW 28 41 15 22 1027.4 1027.6 1.8
29/12:10pm 10.8 5.3 9.2 90 0.8 NW 28 35 15 19 1027.8 1028.0 1.8
29/12:00pm 10.2 3.8 8.5 89 0.8 NW 32 43 17 23 1028.1 1028.3 1.8
29/11:42am 10.4 4.7 8.5 88 0.9 NW 28 37 15 20 1028.4 1028.6 0.8
29/11:30am 10.8 5.2 8.6 86 1.1 NW 28 43 15 23 1028.5 1028.7 0.4
29/11:00am 11.2 6.0 8.9 86 1.1 NW 26 37 14 20 1028.9 1029.1 0.4
29/10:30am 11.1 5.5 8.7 85 1.2 NW 28 39 15 21 1029.0 1029.2 0.4
29/10:09am 10.3 4.6 8.2 87 1.0 NW 28 46 15 25 1029.2 1029.4 0.4
29/10:00am 10.8 4.7 8.2 84 1.3 NW 30 37 16 20 1029.3 1029.5 0.0
29/09:30am 11.0 6.6 8.8 86 1.1 NW 22 28 12 15 1029.3 1029.5 0.0
29/09:00am 10.5 6.3 8.3 86 1.1 WNW 20 26 11 14 1029.4 1029.6 0.8
29/08:30am 10.1 4.7 8.0 87 1.0 NW 26 33 14 18 1029.6 1029.8 0.8
29/08:00am 10.3 5.3 8.1 86 1.1 NW 24 30 13 16 1029.9 1030.0 0.8
29/07:30am 9.9 4.8 7.7 86 1.1 WNW 24 33 13 18 1029.5 1029.7 0.8
29/07:00am 9.7 5.3 7.6 87 1.0 NW 20 28 11 15 1029.4 1029.6 0.8
29/06:30am 9.9 4.4 7.7 86 1.1 WNW 26 33 14 18 1029.4 1029.6 0.8
29/06:00am 9.3 4.0 6.9 85 1.1 WNW 24 33 13 18 1029.3 1029.5 0.6
29/05:30am 10.1 4.8 7.0 81 1.5 WNW 24 32 13 17 1029.3 1029.5 0.4
29/05:00am 10.0 4.2 6.3 78 1.7 WNW 26 35 14 19 1029.3 1029.5 0.4
29/04:30am 9.8 4.2 7.1 83 1.3 WNW 26 32 14 17 1029.3 1029.5 0.4
29/04:00am 9.9 4.7 7.2 83 1.3 WNW 24 32 13 17 1029.4 1029.6 0.4
29/03:30am 9.6 5.1 7.0 84 1.2 WNW 20 28 11 15 1029.5 1029.7 0.4
29/03:00am 9.0 4.7 6.8 86 1.0 WNW 19 26 10 14 1029.8 1029.9 0.4
29/02:30am 9.8 5.0 7.4 85 1.1 WNW 22 30 12 16 1030.1 1030.2 0.4
29/02:00am 8.6 5.7 6.4 86 1.0 WNW 11 15 6 8 1030.2 1030.3 0.4
29/01:30am 8.8 5.5 6.6 86 1.0 NW 13 17 7 9 1030.4 1030.5 0.4
29/01:00am 9.4 4.9 7.0 85 1.1 W 20 30 11 16 1030.3 1030.4 0.4
29/12:30am 9.2 4.2 6.6 84 1.2 WNW 22 28 12 15 1030.7 1030.8 0.4
29/12:00am 9.9 4.7 7.3 84 1.2 W 24 33 13 18 1030.8 1030.9 0.4
 
Date/Time
EST
Temp
°C
App
Temp
°C
Dew
Point
Rel
Hum
%
Delta-T
°C
Wind Press
QNH
hPa
Press
MSL
hPa
Rain
since 9 am
mm
Dir
 
Spd
km/h
Gust
km/h
Spd
kts
Gust
kts
28/11:30pm 9.7 6.2 7.3 85 1.1 W 15 22 8 12 1030.9 1031.0 0.4
28/11:00pm 9.4 5.0 7.2 86 1.0 W 20 28 11 15 1030.8 1030.9 0.4
28/10:48pm 9.4 6.3 7.3 87 1.0 W 13 17 7 9 1030.8 1030.9 0.4
28/10:30pm 9.5 4.6 7.1 85 1.1 W 22 33 12 18 1031.1 1031.2 0.4
28/10:00pm 10.1 5.3 7.2 82 1.4 W 22 33 12 18 1031.0 1031.1 0.0
28/09:30pm 9.4 4.1 6.8 84 1.2 W 24 35 13 19 1031.0 1031.1 0.0
28/09:00pm 10.5 6.3 7.4 81 1.5 W 19 32 10 17 1031.0 1031.1 0.0
28/08:30pm 10.0 5.2 7.3 83 1.3 WSW 22 35 12 19 1030.9 1031.0 0.0
28/08:00pm 10.4 5.3 7.5 82 1.4 W 24 35 13 19 1030.8 1030.9 0.0
28/07:30pm 10.6 4.4 7.7 82 1.4 W 30 56 16 30 1030.6 1030.7 0.0
28/07:28pm 10.8 4.9 7.7 81 1.5 W 28 46 15 25 1030.6 1030.7 0.0
28/07:00pm 10.7 4.8 7.4 80 1.6 W 28 41 15 22 1030.6 1030.7 0.0
28/06:30pm 10.7 5.2 7.4 80 1.6 W 26 37 14 20 1030.6 1030.7 0.0
28/06:00pm 10.6 5.1 7.5 81 1.5 W 26 39 14 21 1030.6 1030.7 0.0
28/05:30pm 10.4 4.5 7.3 81 1.5 W 28 44 15 24 1030.4 1030.5 0.0
28/05:00pm 10.8 5.3 7.5 80 1.6 W 26 37 14 20 1030.2 1030.3 0.0
28/04:30pm 10.7 5.5 7.2 79 1.7 W 24 41 13 22 1030.2 1030.3 0.0
28/04:00pm 11.0 5.1 7.5 79 1.7 W 28 44 15 24 1029.9 1030.0 0.0
28/03:30pm 11.1 5.3 7.8 80 1.6 W 28 41 15 22 1029.9 1030.0 0.0
28/03:00pm 10.7 4.8 7.6 81 1.5 W 28 50 15 27 1029.6 1029.8 0.0
28/02:58pm 11.0 4.8 7.9 81 1.5 W 30 50 16 27 1029.6 1029.8 0.0
28/02:30pm 10.8 4.6 7.9 82 1.4 W 30 44 16 24 1029.6 1029.8 0.0
28/02:00pm 10.9 4.3 7.6 80 1.6 W 32 48 17 26 1029.6 1029.8 0.0
28/01:43pm 11.3 4.7 7.8 79 1.7 W 32 50 17 27 1029.8 1029.9 0.0
28/01:30pm 11.2 4.7 8.1 81 1.5 W 32 46 17 25 1029.9 1030.0 0.0
28/01:17pm 11.3 4.6 8.2 81 1.5 W 33 52 18 28 1029.9 1030.0 0.0
28/01:00pm 11.1 5.0 8.1 82 1.5 W 30 44 16 24 1030.1 1030.2 0.0
28/12:30pm 10.6 4.0 7.8 83 1.4 WSW 32 54 17 29 1030.2 1030.3 0.0
28/12:00pm 10.7 4.2 8.1 84 1.3 W 32 52 17 28 1030.4 1030.5 0.0
28/11:30am 11.4 4.9 8.3 81 1.5 W 32 54 17 29 1030.5 1030.6 0.0
28/11:00am 10.9 5.2 8.5 85 1.2 WSW 28 56 15 30 1030.7 1030.8 0.0
28/10:37am 11.2 4.8 8.4 83 1.4 W 32 50 17 27 1030.5 1030.6 0.0
28/10:30am 11.1 4.5 8.5 84 1.3 W 33 46 18 25 1030.5 1030.6 0.0
28/10:00am 10.4 4.7 8.3 87 1.0 WSW 28 50 15 27 1030.4 1030.5 0.0
28/09:30am 10.9 4.5 8.7 86 1.1 W 32 52 17 28 1030.2 1030.3 0.0
28/09:01am 10.5 4.1 8.6 88 0.9 W 32 54 17 29 1030.0 1030.1 0.0
28/09:00am 10.3 4.2 8.4 88 0.9 W 30 54 16 29 1030.0 1030.1 6.4
28/08:41am 9.9 3.8 8.3 90 0.8 W 30 54 16 29 1030.1 1030.2 6.4
28/08:30am 9.8 3.1 8.1 89 0.8 W 33 52 18 28 1029.9 1030.0 6.2
28/08:00am 10.2 4.1 8.3 88 0.9 SW 30 48 16 26 1029.5 1029.7 6.0
28/07:30am 10.4 3.9 8.3 87 1.0 SW 32 57 17 31 1028.9 1029.1 5.4
28/07:01am 9.8 3.3 8.2 90 0.8 SW 32 50 17 27 1028.8 1029.0 5.4
28/07:00am 9.7 3.0 8.1 90 0.8 SW 33 50 18 27 1028.8 1029.0 5.4
28/06:30am 9.5 2.9 7.6 88 0.9 WSW 32 57 17 31 1028.4 1028.6 5.2
28/06:02am 9.3 1.0 7.7 90 0.8 SW 41 59 22 32 1028.1 1028.3 5.2
28/06:00am 9.2 0.3 7.5 89 0.8 SW 44 59 24 32 1028.1 1028.3 5.0
28/05:30am 9.4 3.2 7.7 89 0.8 WSW 30 50 16 27 1027.8 1028.0 4.6
28/05:20am 9.5 -0.2 7.4 87 1.0 SW 48 69 26 37 1027.8 1028.0 4.4
28/05:15am 9.6 1.1 6.9 83 1.3 SW 41 69 22 37 1027.6 1027.8 4.2
28/05:00am 10.2 3.8 7.1 81 1.5 WSW 30 57 16 31 1027.5 1027.7 4.2
28/04:30am 9.6 2.3 7.4 86 1.0 W 35 59 19 32 1027.4 1027.6 4.0
28/04:06am 9.8 1.7 7.1 83 1.3 WSW 39 69 21 37 1027.2 1027.4 3.8
28/04:04am 10.4 3.2 7.6 83 1.3 W 35 61 19 33 1027.1 1027.3 3.8
28/04:00am 10.6 4.0 7.7 82 1.4 W 32 50 17 27 1027.1 1027.3 3.8
28/03:30am 10.9 4.9 7.2 78 1.8 WSW 28 54 15 29 1027.3 1027.5 3.6
28/03:00am 10.3 3.8 6.6 78 1.7 WSW 30 52 16 28 1027.2 1027.4 3.6
28/02:30am 10.9 4.6 7.6 80 1.6 WSW 30 50 16 27 1027.2 1027.4 3.6
28/02:00am 10.6 4.5 8.2 85 1.2 WSW 30 56 16 30 1027.0 1027.2 3.6
28/01:30am 10.4 3.9 8.3 87 1.0 W 32 54 17 29 1026.6 1026.7 3.6
28/01:00am 10.4 3.7 8.3 87 1.0 W 33 52 18 28 1026.5 1026.6 3.6
28/12:55am 10.7 5.0 8.3 85 1.2 WSW 28 48 15 26 1026.4 1026.5 3.4
28/12:46am 10.8 5.9 8.4 85 1.2 WSW 24 41 13 22 1026.4 1026.5 3.4
28/12:34am 10.8 4.4 8.6 86 1.1 SW 32 46 17 25 1026.4 1026.5 3.4
28/12:30am 10.7 4.1 8.5 86 1.1 SW 33 46 18 25 1026.4 1026.5 3.4
28/12:02am 10.2 2.4 8.1 87 1.0 SW 39 57 21 31 1026.4 1026.5 3.4
28/12:00am 10.4 2.3 8.5 88 0.9 SW 41 56 22 30 1026.4 1026.5 3.4
 
Date/Time
EST
Temp
°C
App
Temp
°C
Dew
Point
Rel
Hum
%
Delta-T
°C
Wind Press
QNH
hPa
Press
MSL
hPa
Rain
since 9 am
mm
Dir
 
Spd
km/h
Gust
km/h
Spd
kts
Gust
kts
27/11:30pm 10.9 3.8 8.0 82 1.4 SW 35 54 19 29 1026.3 1026.4 3.0
27/11:12pm 10.7 4.1 7.8 82 1.4 SW 32 50 17 27 1026.4 1026.5 3.0
27/11:00pm 11.1 3.5 7.6 79 1.7 SW 37 52 20 28 1026.2 1026.3 3.0
27/10:30pm 11.1 1.8 7.4 78 1.8 SW 46 56 25 30 1026.2 1026.3 3.0
27/10:00pm 11.0 1.7 7.7 80 1.6 SW 46 56 25 30 1026.0 1026.1 3.0
27/09:30pm 11.1 1.9 8.0 81 1.5 SW 46 61 25 33 1025.8 1025.9 3.0
27/09:00pm 10.9 0.9 8.0 82 1.4 SW 50 61 27 33 1025.6 1025.7 3.0
27/08:30pm 10.7 0.0 7.9 83 1.4 SW 54 69 29 37 1025.2 1025.3 3.0
27/08:01pm 10.7 1.6 8.5 86 1.1 SW 46 65 25 35 1025.0 1025.1 3.0
27/08:00pm 10.6 1.1 8.4 86 1.1 SW 48 65 26 35 1025.0 1025.1 3.0
27/07:49pm 10.7 1.6 8.5 86 1.1 SW 46 67 25 36 1024.9 1025.0 3.0
27/07:30pm 11.1 3.8 8.8 86 1.1 SW 37 65 20 35 1024.6 1024.7 3.0
27/07:00pm 10.9 4.3 8.5 85 1.2 WSW 33 63 18 34 1024.2 1024.3 3.0
27/06:32pm 10.5 3.5 8.6 88 0.9 W 35 61 19 33 1024.0 1024.1 3.0
27/06:30pm 10.5 3.2 8.6 88 0.9 W 37 61 20 33 1023.9 1024.0 3.0
27/06:17pm 10.4 2.3 8.7 89 0.8 W 41 59 22 32 1023.9 1024.0 3.0
27/06:00pm 10.3 2.5 8.2 87 1.0 W 39 54 21 29 1023.7 1023.8 2.2
27/05:30pm 10.7 2.8 7.9 83 1.4 W 39 59 21 32 1023.5 1023.6 1.6
27/05:00pm 10.4 3.2 7.5 82 1.4 W 35 54 19 29 1023.5 1023.6 1.6
27/04:30pm 10.9 4.6 7.2 78 1.8 WSW 30 52 16 28 1023.2 1023.3 1.4
27/04:00pm 10.2 1.7 6.9 80 1.6 WSW 41 72 22 39 1023.1 1023.2 1.4
27/03:36pm 10.4 1.6 7.3 81 1.5 SW 43 61 23 33 1023.0 1023.1 1.4
27/03:30pm 10.3 1.0 7.5 83 1.3 SW 46 69 25 37 1023.1 1023.2 1.4
27/03:00pm 9.9 2.6 7.3 84 1.2 WSW 35 57 19 31 1022.9 1023.0 1.4
27/02:45pm 9.2 0.1 5.9 80 1.5 WSW 43 72 23 39 1022.6 1022.7 0.6
27/02:44pm 9.5 0.8 5.9 78 1.7 WSW 41 72 22 39 1022.7 1022.8 0.4
27/02:30pm 11.1 4.3 6.8 75 2.0 WSW 32 56 17 30 1022.5 1022.6 0.2
27/02:00pm 10.4 3.3 6.5 77 1.8 WSW 33 59 18 32 1022.4 1022.5 0.2
27/01:44pm 10.5 3.7 6.8 78 1.8 WSW 32 56 17 30 1022.4 1022.5 0.2
27/01:41pm 10.8 4.4 7.1 78 1.8 WSW 30 57 16 31 1022.4 1022.5 0.2
27/01:30pm 10.1 2.0 6.8 80 1.6 SW 39 65 21 35 1022.4 1022.5 0.2
27/01:00pm 10.4 2.2 6.4 76 1.9 SW 39 67 21 36 1022.3 1022.4 0.2
27/12:30pm 10.7 3.1 5.7 71 2.3 WSW 35 63 19 34 1022.2 1022.3 0.2
27/12:00pm 10.9 3.5 6.6 75 2.0 WSW 35 63 19 34 1022.4 1022.5 0.0
27/11:35am 10.4 2.7 5.2 70 2.4 WSW 35 80 19 43 1022.4 1022.5 0.0
27/11:30am 10.9 3.7 6.1 72 2.2 WSW 33 59 18 32 1022.6 1022.7 0.0
27/11:00am 10.5 0.8 5.7 72 2.2 WSW 46 72 25 39 1022.6 1022.7 0.0
27/10:30am 10.8 3.2 6.0 72 2.2 WSW 35 57 19 31 1022.3 1022.4 0.0
27/10:00am 10.6 2.7 6.2 74 2.0 WSW 37 67 20 36 1022.2 1022.3 0.0
27/09:30am 10.6 3.0 6.0 73 2.1 WSW 35 65 19 35 1021.8 1021.9 0.0
27/09:00am 10.1 2.8 5.3 72 2.2 WSW 33 56 18 30 1021.4 1021.5 4.2
27/08:30am 9.8 2.5 5.4 74 2.0 WSW 33 63 18 34 1021.1 1021.2 4.2

Other Formats:

Comma delimited format used in spreadsheet applications
http://www.bom.gov.au/fwo/IDT60801/IDT60801.95954.axf

JavaScript Object Notation format (JSON) in row-major order
http://www.bom.gov.au/fwo/IDT60801/IDT60801.95954.json